createdAt,value
2017-12-13T00:00:42.359Z,86.60
2017-12-13T00:03:16.041Z,87.00
2017-12-13T00:05:49.857Z,87.80
2017-12-13T00:08:23.560Z,87.40
2017-12-13T00:10:57.225Z,87.30
2017-12-13T00:13:30.955Z,86.20
2017-12-13T00:16:04.768Z,86.20
2017-12-13T00:18:38.428Z,85.50
2017-12-13T00:21:12.199Z,84.40
2017-12-13T00:23:45.902Z,83.30
2017-12-13T00:26:19.573Z,82.50
2017-12-13T00:28:53.305Z,82.50
2017-12-13T00:31:27.120Z,82.50
2017-12-13T00:34:01.639Z,81.20
2017-12-13T00:36:35.735Z,81.20
2017-12-13T00:39:10.195Z,81.10
2017-12-13T00:41:47.015Z,80.40
2017-12-13T00:44:27.225Z,80.40
2017-12-13T00:47:01.622Z,80.10
2017-12-13T00:49:35.633Z,80.50
2017-12-13T00:52:09.404Z,80.20
2017-12-13T00:54:43.219Z,80.30
2017-12-13T00:57:17.017Z,80.90
2017-12-13T00:59:50.669Z,80.80
2017-12-13T01:02:24.405Z,80.80
2017-12-13T01:04:58.112Z,81.00
2017-12-13T01:07:32.588Z,80.70
2017-12-13T01:10:06.221Z,81.10
2017-12-13T01:12:39.952Z,81.10
2017-12-13T01:15:13.714Z,81.50
2017-12-13T01:17:47.488Z,81.90
2017-12-13T01:20:21.566Z,81.70
2017-12-13T01:22:55.132Z,80.20
2017-12-13T01:25:33.329Z,79.60
2017-12-13T01:28:07.460Z,79.60
2017-12-13T01:30:43.092Z,79.20
2017-12-13T01:33:16.812Z,79.30
2017-12-13T01:35:59.715Z,80.40
2017-12-13T01:38:34.317Z,80.40
2017-12-13T01:41:09.010Z,80.90
2017-12-13T01:43:50.261Z,80.90
2017-12-13T01:46:25.701Z,80.30
2017-12-13T01:49:00.096Z,79.60
2017-12-13T01:51:34.693Z,79.80
2017-12-13T01:54:08.682Z,80.20
2017-12-13T01:56:42.241Z,80.70
2017-12-13T01:59:15.843Z,80.60
2017-12-13T02:02:03.174Z,80.90
2017-12-13T02:04:38.459Z,81.00
2017-12-13T02:07:13.059Z,82.00
2017-12-13T02:09:47.456Z,82.00
2017-12-13T02:12:21.238Z,81.90
2017-12-13T02:14:54.989Z,82.40
2017-12-13T02:17:31.360Z,83.00
2017-12-13T02:20:05.217Z,83.20
2017-12-13T02:22:39.289Z,83.50
2017-12-13T02:25:13.552Z,83.70
2017-12-13T02:27:47.189Z,83.90
2017-12-13T02:30:20.990Z,83.70
2017-12-13T02:32:55.005Z,83.70
2017-12-13T02:35:28.676Z,83.20
2017-12-13T02:38:02.390Z,83.00
2017-12-13T02:40:48.712Z,83.00
2017-12-13T02:43:22.497Z,83.00
2017-12-13T02:45:56.191Z,82.90
2017-12-13T02:48:30.020Z,82.90
2017-12-13T02:51:03.998Z,83.40
2017-12-13T02:53:37.734Z,83.70
2017-12-13T02:56:11.542Z,84.40
2017-12-13T02:58:45.346Z,84.60
2017-12-13T03:01:20.108Z,85.60
2017-12-13T03:03:53.666Z,85.60
2017-12-13T03:06:28.231Z,85.50
2017-12-13T03:09:01.803Z,85.50
2017-12-13T03:11:35.608Z,86.10
2017-12-13T03:14:09.925Z,86.20
2017-12-13T03:16:44.457Z,86.50
2017-12-13T03:19:18.251Z,86.50
2017-12-13T03:21:52.024Z,86.80
2017-12-13T03:24:25.707Z,87.20
2017-12-13T03:26:59.459Z,87.60
2017-12-13T03:29:33.201Z,88.00
2017-12-13T03:32:07.093Z,87.80
2017-12-13T03:34:40.797Z,87.90
2017-12-13T03:37:14.586Z,88.40
2017-12-13T03:39:48.972Z,88.00
2017-12-13T03:42:22.842Z,87.90
2017-12-13T03:44:56.584Z,88.40
2017-12-13T03:47:31.824Z,89.00
2017-12-13T03:50:05.445Z,89.20
2017-12-13T03:52:40.496Z,88.90
2017-12-13T03:55:14.190Z,88.80
2017-12-13T03:57:48.893Z,88.70
2017-12-13T04:00:22.496Z,88.70
2017-12-13T04:02:56.480Z,89.10
2017-12-13T04:05:30.261Z,88.50
2017-12-13T04:08:04.580Z,88.40
2017-12-13T04:10:38.848Z,88.10
2017-12-13T04:13:12.496Z,87.90
2017-12-13T04:15:46.257Z,87.50
2017-12-13T04:18:20.705Z,87.40
2017-12-13T04:20:55.290Z,87.00
2017-12-13T04:23:29.578Z,86.40
2017-12-13T04:26:03.250Z,85.60
2017-12-13T04:28:37.297Z,85.40
2017-12-13T04:31:10.842Z,84.70
2017-12-13T04:33:44.730Z,84.40
2017-12-13T04:36:18.344Z,83.80
2017-12-13T04:38:52.032Z,83.90
2017-12-13T04:41:25.816Z,84.00
2017-12-13T04:44:00.448Z,83.50
2017-12-13T04:46:34.787Z,83.50
2017-12-13T04:49:09.557Z,82.70
2017-12-13T04:51:43.250Z,82.70
2017-12-13T04:54:17.010Z,82.10
2017-12-13T04:56:51.031Z,81.50
2017-12-13T04:59:25.439Z,81.00
2017-12-13T05:02:00.850Z,81.00
2017-12-13T05:04:36.594Z,81.00
2017-12-13T05:07:10.394Z,80.80
2017-12-13T05:09:44.708Z,80.70
2017-12-13T05:12:18.520Z,80.20
2017-12-13T05:14:53.352Z,79.80
2017-12-13T05:17:26.952Z,79.70
2017-12-13T05:20:00.712Z,79.70
2017-12-13T05:22:34.430Z,79.80
2017-12-13T05:25:09.298Z,79.70
2017-12-13T05:27:43.231Z,79.60
2017-12-13T05:33:16.290Z,79.60
2017-12-13T05:35:50.063Z,79.90
2017-12-13T05:38:39.723Z,79.80
2017-12-13T05:41:14.236Z,80.00
2017-12-13T05:43:50.134Z,79.80
2017-12-13T05:46:25.164Z,79.70
2017-12-13T05:48:59.428Z,79.60
2017-12-13T05:51:33.068Z,80.20
2017-12-13T05:54:06.775Z,80.40
2017-12-13T05:56:42.242Z,79.80
2017-12-13T05:59:19.688Z,79.30
2017-12-13T06:01:54.163Z,78.70
2017-12-13T06:04:28.779Z,78.70
2017-12-13T06:07:04.501Z,78.20
2017-12-13T06:09:38.967Z,78.00
2017-12-13T06:12:13.851Z,77.20
2017-12-13T06:14:48.996Z,77.30
2017-12-13T06:17:25.330Z,77.10
2017-12-13T06:20:00.169Z,76.90
2017-12-13T06:22:34.020Z,76.90
2017-12-13T06:25:08.492Z,77.20
2017-12-13T06:27:42.059Z,76.30
2017-12-13T06:30:15.885Z,75.40
2017-12-13T06:32:49.605Z,75.30
2017-12-13T06:35:23.586Z,75.30
2017-12-13T06:38:02.838Z,75.30
2017-12-13T06:40:37.257Z,75.50
2017-12-13T06:43:11.270Z,75.50
2017-12-13T06:45:46.498Z,74.90
2017-12-13T06:48:20.123Z,75.20
2017-12-13T06:50:53.803Z,75.70
2017-12-13T06:53:30.034Z,75.20
2017-12-13T06:56:03.921Z,75.40
2017-12-13T06:58:40.681Z,76.00
2017-12-13T07:01:14.680Z,76.50
2017-12-13T07:03:48.444Z,76.80
2017-12-13T07:06:22.663Z,76.40
2017-12-13T07:08:56.383Z,75.80
2017-12-13T07:11:30.082Z,76.10
2017-12-13T07:14:03.812Z,76.30
2017-12-13T07:16:37.496Z,75.30
2017-12-13T07:19:13.274Z,75.10
2017-12-13T07:21:48.469Z,75.30
2017-12-13T07:24:23.120Z,75.30
2017-12-13T07:26:56.906Z,75.90
2017-12-13T07:29:30.970Z,76.00
2017-12-13T07:32:04.675Z,74.90
2017-12-13T07:34:39.279Z,74.10
2017-12-13T07:37:13.901Z,74.00
2017-12-13T07:39:47.590Z,73.80
2017-12-13T07:42:21.361Z,73.80
2017-12-13T07:44:55.597Z,74.10
2017-12-13T07:47:32.368Z,74.50
2017-12-13T07:50:06.759Z,74.10
2017-12-13T07:52:41.396Z,74.20
2017-12-13T07:55:14.998Z,73.90
2017-12-13T07:57:49.206Z,73.50
2017-12-13T08:03:00.978Z,73.50
2017-12-13T08:05:37.441Z,73.50
2017-12-13T08:08:17.252Z,73.90
2017-12-13T08:10:52.625Z,73.30
2017-12-13T08:13:33.373Z,73.00
2017-12-13T08:16:08.470Z,73.30
2017-12-13T08:18:43.395Z,73.40
2017-12-13T08:21:19.046Z,73.20
2017-12-13T08:23:54.005Z,73.40
2017-12-13T08:26:28.037Z,72.80
2017-12-13T08:29:03.609Z,73.00
2017-12-13T08:31:39.890Z,72.60
2017-12-13T08:36:53.360Z,72.60
2017-12-13T08:39:30.309Z,72.10
2017-12-13T08:42:06.415Z,72.10
2017-12-13T08:44:41.460Z,71.70
2017-12-13T08:47:16.648Z,71.60
2017-12-13T08:49:53.616Z,71.60
2017-12-13T08:52:29.086Z,71.40
2017-12-13T08:55:04.068Z,70.50
2017-12-13T08:57:39.945Z,70.50
2017-12-13T09:00:13.749Z,70.60
2017-12-13T09:02:47.566Z,70.40
2017-12-13T09:05:21.630Z,70.50
2017-12-13T09:07:55.905Z,70.30
2017-12-13T09:10:29.660Z,70.60
2017-12-13T09:13:05.785Z,70.00
2017-12-13T09:15:43.146Z,70.70
2017-12-13T09:18:18.807Z,69.80
2017-12-13T09:20:53.969Z,69.60
2017-12-13T09:23:29.401Z,69.90
2017-12-13T09:26:03.604Z,69.50
2017-12-13T09:28:38.018Z,68.50
2017-12-13T09:31:12.501Z,68.20
2017-12-13T09:33:46.099Z,68.00
2017-12-13T09:36:21.297Z,68.00
2017-12-13T09:38:56.418Z,67.40
2017-12-13T09:41:30.231Z,67.80
2017-12-13T09:44:05.406Z,69.30
2017-12-13T09:49:21.004Z,67.50
2017-12-13T09:51:55.021Z,67.80
2017-12-13T09:54:29.524Z,66.90
2017-12-13T09:57:03.523Z,66.80
2017-12-13T09:59:38.643Z,67.10
2017-12-13T10:02:12.444Z,67.00
2017-12-13T10:04:46.963Z,66.50
2017-12-13T10:07:22.054Z,67.10
2017-12-13T10:09:57.611Z,65.70
2017-12-13T10:12:32.132Z,66.30
2017-12-13T10:15:12.482Z,65.80
2017-12-13T10:17:47.065Z,65.80
2017-12-13T10:20:23.908Z,65.40
2017-12-13T10:22:57.537Z,64.70
2017-12-13T10:25:32.685Z,64.60
2017-12-13T10:28:09.028Z,65.30
2017-12-13T10:30:43.573Z,63.90
2017-12-13T10:33:18.210Z,64.70
2017-12-13T10:35:51.882Z,64.50
2017-12-13T10:38:26.747Z,63.90
2017-12-13T10:41:02.992Z,64.10
2017-12-13T10:43:36.973Z,64.50
2017-12-13T10:46:10.795Z,64.10
2017-12-13T10:48:46.274Z,64.60
2017-12-13T10:51:22.845Z,64.30
2017-12-13T10:53:57.588Z,64.70
2017-12-13T10:56:32.819Z,63.80
2017-12-13T10:59:07.895Z,64.20
2017-12-13T11:01:44.288Z,64.60
2017-12-13T11:04:19.560Z,64.40
2017-12-13T11:06:54.597Z,65.10
2017-12-13T11:09:29.221Z,64.90
2017-12-13T11:12:03.118Z,64.50
2017-12-13T11:14:38.537Z,64.80
2017-12-13T11:17:12.608Z,64.00
2017-12-13T11:19:46.585Z,63.90
2017-12-13T11:22:21.768Z,63.30
2017-12-13T11:24:57.127Z,63.70
2017-12-13T11:27:33.067Z,63.90
2017-12-13T11:30:08.546Z,63.30
2017-12-13T11:32:42.101Z,63.40
2017-12-13T11:35:16.919Z,63.40
2017-12-13T11:37:51.512Z,63.50
2017-12-13T11:40:26.533Z,62.30
2017-12-13T11:43:01.444Z,63.40
2017-12-13T11:45:36.981Z,63.80
2017-12-13T11:48:11.480Z,63.30
2017-12-13T11:50:45.980Z,63.30
2017-12-13T11:53:19.703Z,64.10
2017-12-13T11:55:54.056Z,63.90
2017-12-13T11:58:28.818Z,64.40
2017-12-13T12:01:03.941Z,63.80
2017-12-13T12:03:39.774Z,64.30
2017-12-13T12:09:02.896Z,64.40
2017-12-13T12:11:36.766Z,64.20
2017-12-13T12:14:13.637Z,64.80
2017-12-13T12:22:46.802Z,65.80
2017-12-13T12:25:26.657Z,66.00
2017-12-13T12:28:03.379Z,67.20
2017-12-13T12:30:37.836Z,67.10
2017-12-13T12:33:14.185Z,69.40
2017-12-13T12:35:47.789Z,69.30
2017-12-13T12:38:24.886Z,71.60
2017-12-13T12:40:59.292Z,71.60
2017-12-13T12:43:35.128Z,71.90
2017-12-13T12:46:10.845Z,74.60
2017-12-13T12:48:45.420Z,75.00
2017-12-13T12:51:19.147Z,74.40
2017-12-13T12:53:53.505Z,76.00
2017-12-13T12:56:27.138Z,76.00
2017-12-13T12:59:00.770Z,76.60
2017-12-13T13:01:35.381Z,77.50
2017-12-13T13:04:09.747Z,77.00
2017-12-13T13:06:44.470Z,76.30
2017-12-13T13:09:18.889Z,78.20
2017-12-13T13:11:53.376Z,76.80
2017-12-13T13:14:27.049Z,76.80
2017-12-13T13:17:01.087Z,77.40
2017-12-13T13:19:36.301Z,77.80
2017-12-13T13:22:10.284Z,77.20
2017-12-13T13:24:43.998Z,77.20
2017-12-13T13:27:18.229Z,77.60
2017-12-13T13:29:51.801Z,77.30
2017-12-13T13:32:25.549Z,77.30
2017-12-13T13:35:00.312Z,77.50
2017-12-13T13:37:34.100Z,77.30
2017-12-13T13:40:07.824Z,78.00
2017-12-13T13:42:45.299Z,77.70
2017-12-13T13:45:20.826Z,77.80
2017-12-13T13:47:54.377Z,76.80
2017-12-13T13:50:30.901Z,78.20
2017-12-13T13:53:04.856Z,78.70
2017-12-13T13:55:40.798Z,79.10
2017-12-13T13:58:17.923Z,79.00
2017-12-13T14:00:55.056Z,79.50
2017-12-13T14:03:31.566Z,80.10
2017-12-13T14:06:08.412Z,81.60
2017-12-13T14:08:44.164Z,81.60
2017-12-13T14:11:20.676Z,82.50
2017-12-13T14:13:54.242Z,82.00
2017-12-13T14:16:30.216Z,81.70
2017-12-13T14:19:04.098Z,82.80
2017-12-13T14:21:40.937Z,83.20
2017-12-13T14:24:15.849Z,84.10
2017-12-13T14:26:49.905Z,84.20
2017-12-13T14:29:24.744Z,85.20
2017-12-13T14:31:58.513Z,84.60
2017-12-13T14:34:32.108Z,84.90
2017-12-13T14:37:08.477Z,84.60
2017-12-13T14:39:42.045Z,84.60
2017-12-13T14:42:17.396Z,86.10
2017-12-13T14:44:53.448Z,86.10
2017-12-13T14:47:27.156Z,86.20
2017-12-13T14:50:01.844Z,84.00
2017-12-13T14:52:36.345Z,86.00
2017-12-13T14:55:10.068Z,85.90
2017-12-13T14:57:45.385Z,85.60
2017-12-13T15:00:20.060Z,85.60
2017-12-13T15:02:54.284Z,85.60
2017-12-13T15:05:27.967Z,86.00
2017-12-13T15:08:01.695Z,85.00
2017-12-13T15:10:36.224Z,85.30
2017-12-13T15:13:09.972Z,85.00
2017-12-13T15:15:44.715Z,85.80
2017-12-13T15:18:18.631Z,85.30
2017-12-13T15:20:53.329Z,85.50
2017-12-13T15:23:26.947Z,86.40
2017-12-13T15:26:01.291Z,87.10
2017-12-13T15:28:35.079Z,87.00
2017-12-13T15:31:08.899Z,87.80
2017-12-13T15:33:51.290Z,87.80
2017-12-13T15:36:25.918Z,87.80
2017-12-13T15:39:01.016Z,90.00
2017-12-13T15:41:36.392Z,88.00
2017-12-13T15:44:11.809Z,88.00
2017-12-13T15:46:46.937Z,86.90
2017-12-13T15:49:20.681Z,88.00
2017-12-13T15:51:55.341Z,86.50
2017-12-13T15:54:29.769Z,85.30
2017-12-13T15:57:07.500Z,88.10
2017-12-13T15:59:42.587Z,86.30
2017-12-13T16:02:18.633Z,84.30
2017-12-13T16:04:53.273Z,84.40
2017-12-13T16:07:28.656Z,84.70
2017-12-13T16:10:02.287Z,84.60
2017-12-13T16:12:36.366Z,84.00
2017-12-13T16:15:11.709Z,83.90
2017-12-13T16:17:46.144Z,83.70
2017-12-13T16:20:20.757Z,83.70
2017-12-13T16:22:54.463Z,84.10
2017-12-13T16:25:28.220Z,83.90
2017-12-13T16:28:02.803Z,83.90
2017-12-13T16:30:36.443Z,84.60
2017-12-13T16:33:13.457Z,84.30
2017-12-13T16:35:55.836Z,83.80
2017-12-13T16:38:29.531Z,84.40
2017-12-13T16:41:17.367Z,84.30
2017-12-13T16:43:51.121Z,83.70
2017-12-13T16:46:24.915Z,85.00
2017-12-13T16:48:58.619Z,85.40
2017-12-13T16:51:32.961Z,85.70
2017-12-13T16:54:06.570Z,85.40
2017-12-13T16:56:40.256Z,86.20
2017-12-13T16:59:14.112Z,85.70
2017-12-13T17:01:48.601Z,86.10
2017-12-13T17:04:22.281Z,86.20
2017-12-13T17:07:00.280Z,85.50
2017-12-13T17:12:15.566Z,86.00
2017-12-13T17:14:51.080Z,86.50
2017-12-13T17:20:10.084Z,86.00
2017-12-13T17:22:45.054Z,85.70
2017-12-13T17:25:19.390Z,85.50
2017-12-13T17:27:55.990Z,85.20
2017-12-13T17:30:35.168Z,85.40
2017-12-13T17:33:10.878Z,85.60
2017-12-13T17:35:45.927Z,85.10
2017-12-13T17:38:20.224Z,86.30
2017-12-13T17:40:54.811Z,84.90
2017-12-13T17:43:33.774Z,85.70
2017-12-13T17:46:07.741Z,85.70
2017-12-13T17:48:43.130Z,86.00
2017-12-13T17:51:17.660Z,86.20
2017-12-13T17:53:51.596Z,85.50
2017-12-13T17:56:25.216Z,85.80
2017-12-13T17:58:58.808Z,85.80
2017-12-13T18:01:33.411Z,86.00
2017-12-13T18:04:07.080Z,86.00
2017-12-13T18:06:40.713Z,85.80
2017-12-13T18:09:14.303Z,85.80
2017-12-13T18:11:48.029Z,85.80
2017-12-13T18:14:21.789Z,86.70
2017-12-13T18:16:56.271Z,86.30
2017-12-13T18:19:30.062Z,86.30
2017-12-13T18:22:03.599Z,86.20
2017-12-13T18:24:37.292Z,85.70
2017-12-13T18:27:11.585Z,85.70
2017-12-13T18:29:45.761Z,85.10
2017-12-13T18:32:19.344Z,85.30
2017-12-13T18:34:54.888Z,84.90
2017-12-13T18:37:29.875Z,85.30
2017-12-13T18:40:07.978Z,84.90
2017-12-13T18:42:48.825Z,85.30
2017-12-13T18:45:28.425Z,85.50
2017-12-13T18:48:06.468Z,85.50
2017-12-13T18:50:58.436Z,85.10
2017-12-13T19:23:25.362Z,83.20
2017-12-13T19:25:59.391Z,82.80
2017-12-13T19:28:33.436Z,82.80
2017-12-13T19:31:07.945Z,83.00
2017-12-13T19:33:42.962Z,82.80
2017-12-13T19:36:19.188Z,83.30
2017-12-13T19:38:56.076Z,83.70
2017-12-13T19:41:29.751Z,83.70
2017-12-13T19:44:04.034Z,83.70
2017-12-13T19:46:40.127Z,82.50
2017-12-13T19:49:13.982Z,82.80
2017-12-13T19:51:49.720Z,82.50
2017-12-13T19:54:24.444Z,82.10
2017-12-13T19:57:09.184Z,82.00
2017-12-13T20:05:50.952Z,80.80
2017-12-13T20:08:26.487Z,81.20
2017-12-13T20:11:00.240Z,81.20
2017-12-13T20:13:35.617Z,80.10
2017-12-13T20:16:09.660Z,80.10
2017-12-13T20:18:45.952Z,79.70
2017-12-13T20:21:21.761Z,80.30
2017-12-13T20:23:56.074Z,80.70
2017-12-13T20:31:54.577Z,80.80
2017-12-13T20:34:29.325Z,81.00
2017-12-13T20:37:05.428Z,81.00
2017-12-13T20:39:41.087Z,80.80
2017-12-13T20:45:23.601Z,80.50
2017-12-13T20:47:59.557Z,80.10
2017-12-13T20:50:37.813Z,80.40
2017-12-13T20:53:14.103Z,79.70
2017-12-13T20:55:53.787Z,79.70
2017-12-13T20:58:27.696Z,80.10
2017-12-13T21:01:01.909Z,80.30
2017-12-13T21:03:36.705Z,80.50
2017-12-13T21:06:12.769Z,80.50
2017-12-13T21:08:46.550Z,80.10
2017-12-13T21:11:21.081Z,80.40
2017-12-13T21:13:55.221Z,80.50
2017-12-13T21:16:29.193Z,80.80
2017-12-13T21:19:03.116Z,81.20
2017-12-13T21:21:37.356Z,81.00
2017-12-13T21:24:10.934Z,80.80
2017-12-13T21:26:45.420Z,81.50
2017-12-13T21:29:19.412Z,81.90
2017-12-13T21:31:54.182Z,81.30
2017-12-13T21:34:28.072Z,81.30
2017-12-13T21:37:02.440Z,81.00
2017-12-13T21:39:36.234Z,81.30
2017-12-13T21:42:11.114Z,82.10
2017-12-13T21:44:44.865Z,82.90
2017-12-13T21:47:18.819Z,83.00
2017-12-13T21:49:53.197Z,83.90
2017-12-13T21:52:27.642Z,83.90
2017-12-13T21:55:01.953Z,85.10
2017-12-13T21:57:35.579Z,85.50
2017-12-13T22:00:10.181Z,86.50
2017-12-13T22:02:43.916Z,86.50
2017-12-13T22:05:17.651Z,87.30
2017-12-13T22:07:52.945Z,87.80
2017-12-13T22:10:26.677Z,87.80
2017-12-13T22:13:00.508Z,87.90
2017-12-13T22:15:34.453Z,88.90
2017-12-13T22:18:08.217Z,89.20
2017-12-13T22:20:42.013Z,89.70
2017-12-13T22:23:15.712Z,89.60
2017-12-13T22:25:49.480Z,90.10
2017-12-13T22:28:23.944Z,90.20
2017-12-13T22:34:00.548Z,90.20
2017-12-13T22:36:36.238Z,90.40
2017-12-13T22:39:10.002Z,90.60
2017-12-13T22:41:47.716Z,90.60
2017-12-13T22:44:22.792Z,90.80
2017-12-13T22:46:57.711Z,90.80
2017-12-13T22:49:34.040Z,90.80
2017-12-13T22:52:08.057Z,90.90
2017-12-13T22:54:42.981Z,90.80
2017-12-13T22:57:16.858Z,91.10
2017-12-13T22:59:50.497Z,91.10
2017-12-13T23:02:24.306Z,91.10
2017-12-13T23:04:58.778Z,90.90
2017-12-13T23:07:33.084Z,91.00
2017-12-13T23:10:06.835Z,90.80
2017-12-13T23:12:41.340Z,90.80
2017-12-13T23:15:15.148Z,90.80
2017-12-13T23:17:50.183Z,90.90
2017-12-13T23:20:24.793Z,90.90
2017-12-13T23:22:58.447Z,90.90
2017-12-13T23:25:32.185Z,91.00
2017-12-13T23:28:06.731Z,90.90
2017-12-13T23:30:40.980Z,90.90
2017-12-13T23:33:14.692Z,90.90
2017-12-13T23:35:48.346Z,90.90
2017-12-13T23:38:22.054Z,90.20
2017-12-13T23:40:56.561Z,89.50
2017-12-13T23:43:30.401Z,89.50
2017-12-13T23:46:04.894Z,89.10
2017-12-13T23:48:38.565Z,89.00
2017-12-13T23:51:13.285Z,89.30
2017-12-13T23:53:47.976Z,88.70
2017-12-13T23:56:22.440Z,88.40
2017-12-13T23:58:56.717Z,88.40
